createdAt,value
2018-07-30T00:02:01.945Z,98.70
2018-07-30T00:04:30.163Z,98.90
2018-07-30T00:06:58.331Z,99.30
2018-07-30T00:09:26.510Z,99.40
2018-07-30T00:11:54.690Z,99.70
2018-07-30T00:14:22.841Z,99.90
2018-07-30T00:16:50.977Z,99.90
2018-07-30T00:19:19.102Z,99.90
2018-07-30T00:21:47.221Z,99.90
2018-07-30T00:24:15.398Z,99.90
2018-07-30T00:26:43.536Z,99.90
2018-07-30T00:29:11.669Z,99.90
2018-07-30T00:31:39.855Z,99.90
2018-07-30T00:34:07.990Z,99.90
2018-07-30T00:36:36.112Z,99.90
2018-07-30T00:39:07.618Z,99.90
2018-07-30T00:41:35.761Z,99.90
2018-07-30T00:44:03.905Z,99.90
2018-07-30T00:46:32.074Z,99.90
2018-07-30T00:49:00.264Z,99.90
2018-07-30T00:51:28.487Z,99.90
2018-07-30T00:53:56.662Z,99.90
2018-07-30T00:56:24.801Z,99.90
2018-07-30T00:58:52.953Z,99.90
2018-07-30T01:01:21.226Z,99.90
2018-07-30T01:03:49.368Z,99.90
2018-07-30T01:06:17.502Z,99.90
2018-07-30T01:08:45.637Z,99.90
2018-07-30T01:11:14.489Z,99.90
2018-07-30T01:13:42.636Z,99.90
2018-07-30T01:16:10.789Z,99.90
2018-07-30T01:18:38.905Z,99.90
2018-07-30T01:21:07.026Z,99.90
2018-07-30T01:23:35.196Z,99.90
2018-07-30T01:26:08.823Z,99.90
2018-07-30T01:28:36.965Z,99.90
2018-07-30T01:31:05.102Z,99.90
2018-07-30T01:33:33.278Z,99.90
2018-07-30T01:36:01.466Z,99.90
2018-07-30T01:38:29.641Z,99.90
2018-07-30T01:40:57.813Z,99.90
2018-07-30T01:43:26.023Z,99.90
2018-07-30T01:45:54.151Z,99.90
2018-07-30T01:48:22.289Z,99.90
2018-07-30T01:50:50.461Z,99.90
2018-07-30T01:53:18.610Z,99.90
2018-07-30T01:55:46.968Z,99.90
2018-07-30T01:58:15.089Z,99.90
2018-07-30T02:00:43.207Z,99.90
2018-07-30T02:03:11.346Z,99.90
2018-07-30T02:05:39.470Z,99.90
2018-07-30T02:08:07.595Z,99.90
2018-07-30T02:10:35.725Z,99.90
2018-07-30T02:13:03.881Z,99.90
2018-07-30T02:15:32.014Z,99.90
2018-07-30T02:18:00.172Z,99.90
2018-07-30T02:20:28.337Z,99.90
2018-07-30T02:22:57.742Z,99.90
2018-07-30T02:25:25.921Z,99.90
2018-07-30T02:27:54.061Z,99.90
2018-07-30T02:30:22.197Z,99.90
2018-07-30T02:32:50.321Z,99.90
2018-07-30T02:35:18.475Z,99.90
2018-07-30T02:37:46.602Z,99.90
2018-07-30T02:40:14.734Z,99.90
2018-07-30T02:42:42.858Z,99.90
2018-07-30T02:45:10.994Z,99.90
2018-07-30T02:47:39.133Z,99.90
2018-07-30T02:50:07.698Z,99.90
2018-07-30T02:52:35.834Z,99.90
2018-07-30T02:55:04.001Z,99.90
2018-07-30T02:57:32.170Z,99.90
2018-07-30T03:00:00.333Z,99.90
2018-07-30T03:02:28.533Z,99.90
2018-07-30T03:04:56.665Z,99.90
2018-07-30T03:07:24.785Z,99.90
2018-07-30T03:09:52.920Z,99.90
2018-07-30T03:12:21.102Z,99.90
2018-07-30T03:14:49.217Z,99.90
2018-07-30T03:17:17.357Z,99.90
2018-07-30T03:19:45.507Z,99.90
2018-07-30T03:22:13.677Z,99.90
2018-07-30T03:24:41.877Z,99.90
2018-07-30T03:27:10.018Z,99.90
2018-07-30T03:29:38.146Z,99.90
2018-07-30T03:32:06.338Z,99.90
2018-07-30T03:34:34.470Z,99.90
2018-07-30T03:37:02.623Z,99.90
2018-07-30T03:39:30.761Z,99.90
2018-07-30T03:41:58.913Z,99.90
2018-07-30T03:44:27.089Z,99.90
2018-07-30T03:46:55.253Z,99.90
2018-07-30T03:49:23.365Z,99.90
2018-07-30T03:51:51.507Z,99.90
2018-07-30T03:54:19.629Z,99.90
2018-07-30T03:56:47.776Z,99.90
2018-07-30T03:59:15.906Z,99.90
2018-07-30T04:01:44.033Z,99.90
2018-07-30T04:04:12.157Z,99.90
2018-07-30T04:06:40.285Z,99.90
2018-07-30T04:09:08.601Z,99.90
2018-07-30T04:11:36.872Z,99.90
2018-07-30T04:14:05.045Z,99.90
2018-07-30T04:16:37.565Z,99.90
2018-07-30T04:19:05.725Z,99.90
2018-07-30T04:21:33.897Z,99.90
2018-07-30T04:24:02.040Z,99.90
2018-07-30T04:26:30.224Z,99.90
2018-07-30T04:28:58.417Z,99.90
2018-07-30T04:31:26.571Z,99.90
2018-07-30T04:33:54.703Z,99.90
2018-07-30T04:36:22.830Z,99.90
2018-07-30T04:38:50.987Z,99.90
2018-07-30T04:41:19.135Z,99.90
2018-07-30T04:43:47.365Z,99.90
2018-07-30T04:46:15.413Z,99.90
2018-07-30T04:48:43.564Z,99.90
2018-07-30T04:51:11.689Z,99.90
2018-07-30T04:53:39.823Z,99.90
2018-07-30T04:56:07.957Z,99.90
2018-07-30T04:58:36.082Z,99.90
2018-07-30T05:01:04.325Z,99.90
2018-07-30T05:03:32.509Z,99.90
2018-07-30T05:06:00.679Z,99.90
2018-07-30T05:08:28.846Z,99.90
2018-07-30T05:10:57.034Z,99.90
2018-07-30T05:13:25.184Z,99.90
2018-07-30T05:15:53.348Z,99.90
2018-07-30T05:18:21.512Z,99.90
2018-07-30T05:20:49.656Z,99.90
2018-07-30T05:23:17.763Z,99.90
2018-07-30T05:25:45.913Z,99.90
2018-07-30T05:28:14.059Z,99.90
2018-07-30T05:30:42.207Z,99.90
2018-07-30T05:33:10.368Z,99.90
2018-07-30T05:35:38.766Z,99.90
2018-07-30T05:38:06.936Z,99.90
2018-07-30T05:40:35.148Z,99.90
2018-07-30T05:43:03.905Z,99.90
2018-07-30T05:45:32.277Z,99.90
2018-07-30T05:48:00.530Z,99.90
2018-07-30T05:50:28.704Z,99.90
2018-07-30T05:52:56.877Z,99.90
2018-07-30T05:55:25.018Z,99.90
2018-07-30T05:57:53.125Z,99.90
2018-07-30T06:00:21.338Z,99.90
2018-07-30T06:02:49.690Z,99.90
2018-07-30T06:05:17.810Z,99.90
2018-07-30T06:07:45.932Z,99.90
2018-07-30T06:10:14.044Z,99.90
2018-07-30T06:12:42.177Z,99.90
2018-07-30T06:15:10.293Z,99.90
2018-07-30T06:17:38.417Z,99.90
2018-07-30T06:20:07.779Z,99.90
2018-07-30T06:22:35.984Z,99.90
2018-07-30T06:25:04.373Z,99.90
2018-07-30T06:27:32.482Z,99.90
2018-07-30T06:30:00.602Z,99.90
2018-07-30T06:32:28.717Z,99.90
2018-07-30T06:34:56.897Z,99.90
2018-07-30T06:37:25.022Z,99.90
2018-07-30T06:39:53.308Z,99.90
2018-07-30T06:42:21.513Z,99.90
2018-07-30T06:44:49.616Z,99.90
2018-07-30T06:47:17.749Z,99.90
2018-07-30T06:49:45.845Z,99.90
2018-07-30T06:52:13.993Z,99.90
2018-07-30T06:54:42.096Z,99.90
2018-07-30T06:57:10.218Z,99.90
2018-07-30T06:59:38.329Z,99.90
2018-07-30T07:02:06.474Z,99.90
2018-07-30T07:04:34.590Z,99.90
2018-07-30T07:07:02.746Z,99.90
2018-07-30T07:09:30.881Z,99.70
2018-07-30T07:11:59.064Z,99.60
2018-07-30T07:14:27.253Z,99.50
2018-07-30T07:16:55.520Z,98.90
2018-07-30T07:19:23.594Z,98.50
2018-07-30T07:21:51.736Z,98.10
2018-07-30T07:24:19.861Z,97.70
2018-07-30T07:26:48.032Z,97.30
2018-07-30T07:29:16.187Z,96.90
2018-07-30T07:31:44.366Z,96.70
2018-07-30T07:34:12.510Z,96.20
2018-07-30T07:36:40.712Z,96.80
2018-07-30T07:39:09.641Z,96.00
2018-07-30T07:41:37.790Z,95.70
2018-07-30T07:44:05.934Z,95.70
2018-07-30T07:46:34.141Z,95.60
2018-07-30T07:49:02.618Z,95.40
2018-07-30T07:51:30.806Z,95.00
2018-07-30T07:53:58.973Z,95.00
2018-07-30T07:56:27.145Z,94.50
2018-07-30T07:58:55.305Z,94.10
2018-07-30T08:01:23.502Z,93.40
2018-07-30T08:03:51.700Z,93.50
2018-07-30T08:06:19.881Z,93.30
2018-07-30T08:08:48.018Z,92.90
2018-07-30T08:11:16.160Z,92.30
2018-07-30T08:13:44.283Z,91.90
2018-07-30T08:16:12.480Z,91.40
2018-07-30T08:18:40.579Z,90.50
2018-07-30T08:21:08.734Z,89.50
2018-07-30T08:23:36.881Z,88.70
2018-07-30T08:26:05.034Z,87.50
2018-07-30T08:28:33.189Z,85.40
2018-07-30T08:31:01.347Z,84.40
2018-07-30T08:33:29.507Z,84.70
2018-07-30T08:35:58.632Z,83.90
2018-07-30T08:38:26.792Z,79.50
2018-07-30T08:40:54.973Z,80.70
2018-07-30T08:43:23.109Z,81.40
2018-07-30T08:45:51.265Z,80.40
2018-07-30T08:48:19.427Z,79.50
2018-07-30T08:50:47.659Z,77.80
2018-07-30T08:53:15.803Z,75.30
2018-07-30T08:55:44.011Z,74.30
2018-07-30T08:58:12.714Z,74.50
2018-07-30T09:00:40.846Z,74.50
2018-07-30T09:03:09.966Z,71.80
2018-07-30T09:05:38.105Z,70.10
2018-07-30T09:08:06.253Z,71.70
2018-07-30T09:10:34.397Z,72.40
2018-07-30T09:13:02.550Z,74.00
2018-07-30T09:15:30.710Z,72.00
2018-07-30T09:17:58.840Z,73.30
2018-07-30T09:20:27.050Z,69.10
2018-07-30T09:22:55.191Z,71.30
2018-07-30T09:25:23.358Z,70.50
2018-07-30T09:27:51.502Z,69.10
2018-07-30T09:30:19.630Z,68.90
2018-07-30T09:32:47.866Z,65.60
2018-07-30T09:35:15.906Z,62.10
2018-07-30T09:37:44.032Z,64.90
2018-07-30T09:40:12.173Z,63.60
2018-07-30T09:42:40.297Z,60.60
2018-07-30T09:45:08.437Z,63.60
2018-07-30T09:47:36.557Z,60.60
2018-07-30T09:50:05.132Z,61.20
2018-07-30T09:52:33.305Z,60.80
2018-07-30T09:55:01.542Z,57.70
2018-07-30T09:57:29.737Z,57.10
2018-07-30T09:59:57.990Z,58.00
2018-07-30T10:02:26.139Z,57.70
2018-07-30T10:04:54.260Z,54.20
2018-07-30T10:07:22.508Z,55.50
2018-07-30T10:09:50.664Z,56.80
2018-07-30T10:12:18.808Z,55.00
2018-07-30T10:14:46.942Z,55.30
2018-07-30T10:17:15.101Z,53.90
2018-07-30T10:19:43.235Z,54.60
2018-07-30T10:22:11.393Z,55.40
2018-07-30T10:24:39.572Z,53.40
2018-07-30T10:27:07.733Z,51.90
2018-07-30T10:29:35.872Z,50.50
2018-07-30T10:32:04.018Z,50.90
2018-07-30T10:34:32.687Z,51.10
2018-07-30T10:37:00.790Z,52.00
2018-07-30T10:39:28.909Z,52.30
2018-07-30T10:41:57.075Z,53.10
2018-07-30T10:44:25.230Z,54.30
2018-07-30T10:46:53.357Z,52.40
2018-07-30T10:49:21.502Z,53.40
2018-07-30T10:51:49.645Z,52.40
2018-07-30T10:54:17.761Z,52.00
2018-07-30T10:56:45.966Z,50.80
2018-07-30T10:59:14.081Z,50.60
2018-07-30T11:01:42.249Z,50.50
2018-07-30T11:04:10.425Z,51.20
2018-07-30T11:06:38.561Z,51.10
2018-07-30T11:09:07.937Z,51.80
2018-07-30T11:11:36.077Z,50.80
2018-07-30T11:14:04.243Z,52.10
2018-07-30T11:16:32.390Z,50.40
2018-07-30T11:19:00.536Z,49.60
2018-07-30T11:21:28.704Z,49.40
2018-07-30T11:23:56.870Z,50.80
2018-07-30T11:26:24.998Z,50.30
2018-07-30T11:28:53.185Z,52.00
2018-07-30T11:31:21.336Z,51.50
2018-07-30T11:33:49.463Z,50.40
2018-07-30T11:36:17.624Z,52.10
2018-07-30T11:38:45.748Z,49.90
2018-07-30T11:41:13.889Z,49.10
2018-07-30T11:43:42.124Z,52.50
2018-07-30T11:46:10.205Z,49.80
2018-07-30T11:48:38.354Z,51.40
2018-07-30T11:51:06.689Z,50.90
2018-07-30T11:53:34.837Z,50.80
2018-07-30T11:56:02.962Z,52.00
2018-07-30T11:58:31.137Z,51.70
2018-07-30T12:00:59.451Z,51.10
2018-07-30T12:03:27.647Z,51.40
2018-07-30T12:05:55.864Z,50.20
2018-07-30T12:08:24.005Z,50.40
2018-07-30T12:10:52.381Z,50.50
2018-07-30T12:13:20.562Z,49.70
2018-07-30T12:15:48.632Z,50.70
2018-07-30T12:18:16.774Z,49.10
2018-07-30T12:20:44.914Z,51.30
2018-07-30T12:23:13.033Z,49.90
2018-07-30T12:25:41.146Z,48.40
2018-07-30T12:28:09.372Z,48.40
2018-07-30T12:30:37.620Z,52.80
2018-07-30T12:33:06.826Z,51.50
2018-07-30T12:35:35.258Z,49.70
2018-07-30T12:38:03.481Z,48.50
2018-07-30T12:40:34.476Z,48.60
2018-07-30T12:43:03.637Z,48.10
2018-07-30T12:45:37.242Z,47.80
2018-07-30T12:48:05.579Z,49.60
2018-07-30T12:50:33.835Z,49.00
2018-07-30T12:53:01.919Z,50.50
2018-07-30T12:55:30.094Z,50.60
2018-07-30T12:57:58.284Z,46.30
2018-07-30T13:00:26.759Z,47.90
2018-07-30T13:02:55.025Z,48.40
2018-07-30T13:05:23.230Z,48.60
2018-07-30T13:07:51.624Z,49.40
2018-07-30T13:10:19.833Z,48.50
2018-07-30T13:12:48.045Z,47.30
2018-07-30T13:15:16.194Z,47.30
2018-07-30T13:17:44.465Z,47.70
2018-07-30T13:20:12.639Z,46.40
2018-07-30T13:22:40.757Z,46.30
2018-07-30T13:25:08.918Z,46.10
2018-07-30T13:27:37.249Z,47.00
2018-07-30T13:30:05.755Z,47.30
2018-07-30T13:32:34.060Z,45.90
2018-07-30T13:35:02.227Z,47.30
2018-07-30T13:37:30.424Z,47.50
2018-07-30T13:39:58.614Z,47.10
2018-07-30T13:42:26.809Z,46.60
2018-07-30T13:44:54.966Z,46.70
2018-07-30T13:47:23.093Z,46.40
2018-07-30T13:49:51.270Z,45.80
2018-07-30T13:52:19.450Z,46.80
2018-07-30T13:54:47.602Z,46.00
2018-07-30T13:57:15.730Z,47.70
2018-07-30T13:59:43.930Z,46.40
2018-07-30T14:02:12.302Z,48.00
2018-07-30T14:04:40.445Z,45.10
2018-07-30T14:07:08.578Z,48.00
2018-07-30T14:09:36.766Z,47.30
2018-07-30T14:12:04.930Z,45.60
2018-07-30T14:14:33.114Z,46.10
2018-07-30T14:17:01.332Z,48.60
2018-07-30T14:19:29.561Z,47.90
2018-07-30T14:21:57.885Z,45.90
2018-07-30T14:24:26.081Z,46.10
2018-07-30T14:26:54.312Z,47.00
2018-07-30T14:29:22.534Z,46.40
2018-07-30T14:31:50.722Z,47.10
2018-07-30T14:34:19.112Z,46.60
2018-07-30T14:36:47.357Z,45.90
2018-07-30T14:39:16.429Z,46.70
2018-07-30T14:41:44.606Z,45.80
2018-07-30T14:44:12.769Z,47.50
2018-07-30T14:46:40.884Z,45.10
2018-07-30T14:49:09.015Z,47.30
2018-07-30T14:51:37.210Z,46.30
2018-07-30T14:54:05.357Z,45.40
2018-07-30T14:56:33.647Z,46.00
2018-07-30T14:59:01.833Z,46.40
2018-07-30T15:01:30.170Z,46.50
2018-07-30T15:03:58.396Z,46.20
2018-07-30T15:06:26.589Z,45.00
2018-07-30T15:08:54.821Z,45.40
2018-07-30T15:11:22.973Z,47.00
2018-07-30T15:13:51.149Z,46.50
2018-07-30T15:16:19.299Z,46.80
2018-07-30T15:18:47.465Z,46.20
2018-07-30T15:21:15.613Z,46.00
2018-07-30T15:23:43.789Z,45.00
2018-07-30T15:26:11.933Z,45.60
2018-07-30T15:28:40.233Z,44.30
2018-07-30T15:31:08.411Z,45.80
2018-07-30T15:33:36.581Z,46.50
2018-07-30T15:36:04.760Z,46.20
2018-07-30T15:38:32.924Z,46.10
2018-07-30T15:41:01.105Z,46.20
2018-07-30T15:43:29.350Z,46.30
2018-07-30T15:45:57.520Z,44.60
2018-07-30T15:48:25.717Z,45.60
2018-07-30T15:50:53.883Z,45.80
2018-07-30T15:53:22.017Z,45.40
2018-07-30T15:55:50.145Z,45.30
2018-07-30T15:58:18.326Z,45.10
2018-07-30T16:00:46.537Z,46.10
2018-07-30T16:03:14.676Z,45.20
2018-07-30T16:05:42.839Z,45.30
2018-07-30T16:08:11.009Z,44.60
2018-07-30T16:10:39.234Z,44.70
2018-07-30T16:13:07.414Z,44.90
2018-07-30T16:15:35.598Z,45.60
2018-07-30T16:18:03.789Z,45.60
2018-07-30T16:20:31.989Z,44.70
2018-07-30T16:23:00.352Z,44.30
2018-07-30T16:25:28.529Z,44.60
2018-07-30T16:27:56.762Z,44.70
2018-07-30T16:30:25.279Z,44.70
2018-07-30T16:32:53.433Z,45.40
2018-07-30T16:35:21.588Z,46.30
2018-07-30T16:37:49.882Z,45.50
2018-07-30T16:40:18.023Z,45.70
2018-07-30T16:42:46.169Z,46.20
2018-07-30T16:45:14.336Z,46.80
2018-07-30T16:47:42.527Z,46.50
2018-07-30T16:50:10.651Z,46.60
2018-07-30T16:52:38.771Z,46.80
2018-07-30T16:55:07.204Z,46.20
2018-07-30T16:57:35.366Z,46.60
2018-07-30T17:00:04.902Z,47.40
2018-07-30T17:02:33.026Z,47.90
2018-07-30T17:05:01.178Z,47.50
2018-07-30T17:07:29.297Z,48.10
2018-07-30T17:09:57.468Z,48.00
2018-07-30T17:12:25.583Z,48.60
2018-07-30T17:14:53.796Z,48.90
2018-07-30T17:17:21.936Z,49.30
2018-07-30T17:19:50.116Z,49.00
2018-07-30T17:22:18.255Z,49.30
2018-07-30T17:24:46.461Z,49.50
2018-07-30T17:27:14.607Z,49.40
2018-07-30T17:29:42.743Z,49.10
2018-07-30T17:32:10.868Z,49.90
2018-07-30T17:34:38.998Z,49.80
2018-07-30T17:37:07.182Z,49.90
2018-07-30T17:39:36.317Z,50.10
2018-07-30T17:42:04.474Z,50.80
2018-07-30T17:44:32.627Z,50.90
2018-07-30T17:47:00.749Z,51.20
2018-07-30T17:49:28.953Z,51.50
2018-07-30T17:51:57.141Z,52.00
2018-07-30T17:54:25.409Z,52.10
2018-07-30T17:56:53.565Z,52.40
2018-07-30T17:59:21.794Z,53.00
2018-07-30T18:01:49.955Z,53.40
2018-07-30T18:04:18.103Z,53.10
2018-07-30T18:06:46.248Z,53.80
2018-07-30T18:09:14.410Z,54.30
2018-07-30T18:11:42.571Z,54.70
2018-07-30T18:14:10.723Z,54.50
2018-07-30T18:16:38.830Z,54.80
2018-07-30T18:19:07.128Z,55.30
2018-07-30T18:21:35.348Z,55.40
2018-07-30T18:24:03.495Z,55.90
2018-07-30T18:26:31.633Z,56.50
2018-07-30T18:28:59.857Z,56.70
2018-07-30T18:31:27.978Z,57.10
2018-07-30T18:33:56.233Z,57.40
2018-07-30T18:36:24.420Z,57.90
2018-07-30T18:38:52.589Z,57.80
2018-07-30T18:41:20.836Z,57.60
2018-07-30T18:43:49.295Z,58.10
2018-07-30T18:46:17.463Z,58.20
2018-07-30T18:48:45.583Z,58.00
2018-07-30T18:51:13.721Z,58.60
2018-07-30T18:53:41.869Z,59.50
2018-07-30T18:56:10.021Z,59.50
2018-07-30T18:58:38.145Z,60.60
2018-07-30T19:01:06.281Z,61.30
2018-07-30T19:03:34.441Z,61.90
2018-07-30T19:06:02.573Z,62.10
2018-07-30T19:08:30.729Z,62.50
2018-07-30T19:10:58.993Z,63.30
2018-07-30T19:13:27.125Z,63.40
2018-07-30T19:15:55.507Z,64.30
2018-07-30T19:18:23.700Z,65.30
2018-07-30T19:20:52.033Z,64.60
2018-07-30T19:23:20.198Z,66.10
2018-07-30T19:25:48.361Z,65.30
2018-07-30T19:28:16.516Z,66.40
2018-07-30T19:30:44.677Z,65.80
2018-07-30T19:33:12.924Z,65.30
2018-07-30T19:35:41.106Z,64.60
2018-07-30T19:38:09.274Z,64.30
2018-07-30T19:40:38.409Z,64.50
2018-07-30T19:43:06.531Z,63.90
2018-07-30T19:45:34.718Z,64.60
2018-07-30T19:48:02.902Z,63.70
2018-07-30T19:50:31.028Z,63.60
2018-07-30T19:52:59.154Z,62.50
2018-07-30T19:55:27.303Z,65.00
2018-07-30T19:57:55.972Z,64.50
2018-07-30T20:00:23.965Z,63.90
2018-07-30T20:02:52.185Z,64.00
2018-07-30T20:05:20.652Z,65.50
2018-07-30T20:07:48.861Z,66.20
2018-07-30T20:10:17.377Z,66.30
2018-07-30T20:12:45.602Z,67.00
2018-07-30T20:15:14.169Z,68.20
2018-07-30T20:17:42.435Z,69.10
2018-07-30T20:20:12.974Z,70.60
2018-07-30T20:22:41.298Z,70.10
2018-07-30T20:25:09.492Z,70.00
2018-07-30T20:27:37.639Z,69.50
2018-07-30T20:30:06.104Z,70.10
2018-07-30T20:32:34.349Z,70.40
2018-07-30T20:35:02.612Z,69.90
2018-07-30T20:37:30.960Z,70.70
2018-07-30T20:39:59.173Z,70.80
2018-07-30T20:42:27.594Z,70.80
2018-07-30T20:44:55.818Z,71.00
2018-07-30T20:47:24.249Z,70.20
2018-07-30T20:49:52.646Z,70.60
2018-07-30T20:52:21.031Z,70.60
2018-07-30T20:54:49.394Z,71.40
2018-07-30T20:57:17.559Z,72.20
2018-07-30T20:59:45.889Z,72.30
2018-07-30T21:02:14.094Z,71.50
2018-07-30T21:04:42.390Z,70.70
2018-07-30T21:07:10.587Z,71.80
2018-07-30T21:09:38.782Z,72.40
2018-07-30T21:12:06.975Z,73.00
2018-07-30T21:14:35.162Z,72.70
2018-07-30T21:17:03.301Z,73.10
2018-07-30T21:19:31.480Z,73.30
2018-07-30T21:21:59.598Z,75.10
2018-07-30T21:24:27.715Z,75.00
2018-07-30T21:26:57.426Z,76.60
2018-07-30T21:29:25.574Z,75.60
2018-07-30T21:31:53.772Z,75.50
2018-07-30T21:34:23.229Z,75.80
2018-07-30T21:36:51.534Z,76.20
2018-07-30T21:39:19.723Z,76.70
2018-07-30T21:41:47.947Z,76.70
2018-07-30T21:44:16.078Z,77.00
2018-07-30T21:46:44.196Z,77.30
2018-07-30T21:49:12.328Z,78.30
2018-07-30T21:51:40.449Z,78.30
2018-07-30T21:54:08.637Z,78.90
2018-07-30T21:56:36.765Z,78.50
2018-07-30T21:59:04.945Z,79.10
2018-07-30T22:01:36.615Z,79.00
2018-07-30T22:04:04.742Z,79.90
2018-07-30T22:06:32.850Z,80.50
2018-07-30T22:09:00.982Z,81.20
2018-07-30T22:11:29.140Z,81.00
2018-07-30T22:13:57.276Z,81.40
2018-07-30T22:16:25.465Z,81.90
2018-07-30T22:18:53.679Z,81.90
2018-07-30T22:21:21.830Z,82.30
2018-07-30T22:23:50.017Z,82.50
2018-07-30T22:26:18.158Z,82.80
2018-07-30T22:28:46.320Z,83.10
2018-07-30T22:31:14.488Z,83.20
2018-07-30T22:33:42.618Z,83.60
2018-07-30T22:36:10.735Z,84.30
2018-07-30T22:38:38.863Z,84.50
2018-07-30T22:41:07.012Z,84.50
2018-07-30T22:43:35.146Z,85.20
2018-07-30T22:46:03.284Z,85.30
2018-07-30T22:48:31.425Z,85.10
2018-07-30T22:50:59.571Z,85.30
2018-07-30T22:53:27.714Z,86.10
2018-07-30T22:55:55.862Z,86.40
2018-07-30T22:58:24.059Z,87.10
2018-07-30T23:00:52.277Z,87.30
2018-07-30T23:03:20.429Z,87.20
2018-07-30T23:05:48.562Z,87.40
2018-07-30T23:08:16.694Z,87.20
2018-07-30T23:10:44.818Z,87.20
2018-07-30T23:13:12.949Z,87.40
2018-07-30T23:15:41.073Z,88.10
2018-07-30T23:18:09.297Z,88.40
2018-07-30T23:20:37.532Z,88.60
2018-07-30T23:23:05.684Z,89.60
2018-07-30T23:25:33.830Z,89.80
2018-07-30T23:28:01.948Z,89.90
2018-07-30T23:30:30.113Z,90.20
2018-07-30T23:32:58.268Z,90.20
2018-07-30T23:35:26.437Z,90.50
2018-07-30T23:37:54.595Z,90.60
2018-07-30T23:40:22.808Z,90.90
2018-07-30T23:42:51.013Z,91.30
2018-07-30T23:45:19.233Z,91.10
2018-07-30T23:47:47.458Z,91.50
2018-07-30T23:50:15.590Z,91.80
2018-07-30T23:52:43.721Z,91.90
2018-07-30T23:55:11.898Z,91.90
2018-07-30T23:57:39.974Z,91.80
